sensor_id;sensor_type;location;lat;lon;timestamp;temperature;humidity
67748;HTU21D;54543;50.712;6.070;2022-11-11T00:01:25;9.60;76.32
67748;HTU21D;54543;50.712;6.070;2022-11-11T00:03:53;9.61;76.29
67748;HTU21D;54543;50.712;6.070;2022-11-11T00:06:20;9.59;76.25
67748;HTU21D;54543;50.712;6.070;2022-11-11T00:08:46;9.59;76.08
67748;HTU21D;54543;50.712;6.070;2022-11-11T00:11:14;9.57;76.13
67748;HTU21D;54543;50.712;6.070;2022-11-11T00:13:41;9.57;76.12
67748;HTU21D;54543;50.712;6.070;2022-11-11T00:18:38;9.54;76.08
67748;HTU21D;54543;50.712;6.070;2022-11-11T00:21:22;9.52;76.12
67748;HTU21D;54543;50.712;6.070;2022-11-11T00:27:07;9.48;76.12
67748;HTU21D;54543;50.712;6.070;2022-11-11T00:29:33;9.46;76.07
67748;HTU21D;54543;50.712;6.070;2022-11-11T00:31:59;9.45;76.12
67748;HTU21D;54543;50.712;6.070;2022-11-11T00:34:43;9.44;76.16
67748;HTU21D;54543;50.712;6.070;2022-11-11T00:37:29;9.41;76.25
67748;HTU21D;54543;50.712;6.070;2022-11-11T00:39:54;9.40;76.35
67748;HTU21D;54543;50.712;6.070;2022-11-11T00:42:20;9.35;76.60
67748;HTU21D;54543;50.712;6.070;2022-11-11T00:44:45;9.34;76.60
67748;HTU21D;54543;50.712;6.070;2022-11-11T00:47:10;9.34;76.47
67748;HTU21D;54543;50.712;6.070;2022-11-11T00:50:14;9.32;76.70
67748;HTU21D;54543;50.712;6.070;2022-11-11T00:53:00;9.27;76.96
67748;HTU21D;54543;50.712;6.070;2022-11-11T00:55:26;9.25;77.09
67748;HTU21D;54543;50.712;6.070;2022-11-11T00:57:51;9.22;77.19
67748;HTU21D;54543;50.712;6.070;2022-11-11T01:00:17;9.21;77.21
67748;HTU21D;54543;50.712;6.070;2022-11-11T01:02:43;9.18;77.24
67748;HTU21D;54543;50.712;6.070;2022-11-11T01:05:08;9.15;77.40
67748;HTU21D;54543;50.712;6.070;2022-11-11T01:07:34;9.10;77.56
67748;HTU21D;54543;50.712;6.070;2022-11-11T01:09:59;9.08;77.66
67748;HTU21D;54543;50.712;6.070;2022-11-11T01:12:25;9.04;77.66
67748;HTU21D;54543;50.712;6.070;2022-11-11T01:14:50;9.01;77.77
67748;HTU21D;54543;50.712;6.070;2022-11-11T01:17:18;8.97;77.94
67748;HTU21D;54543;50.712;6.070;2022-11-11T01:19:43;8.96;77.93
67748;HTU21D;54543;50.712;6.070;2022-11-11T01:22:10;8.94;78.01
67748;HTU21D;54543;50.712;6.070;2022-11-11T01:24:36;8.92;77.96
67748;HTU21D;54543;50.712;6.070;2022-11-11T01:27:02;8.91;78.06
67748;HTU21D;54543;50.712;6.070;2022-11-11T01:29:28;8.91;78.05
67748;HTU21D;54543;50.712;6.070;2022-11-11T01:31:53;8.91;78.05
67748;HTU21D;54543;50.712;6.070;2022-11-11T01:34:19;8.89;78.02
67748;HTU21D;54543;50.712;6.070;2022-11-11T01:36:44;8.90;78.08
67748;HTU21D;54543;50.712;6.070;2022-11-11T01:39:10;8.90;78.03
67748;HTU21D;54543;50.712;6.070;2022-11-11T01:41:36;8.89;78.03
67748;HTU21D;54543;50.712;6.070;2022-11-11T01:57:39;8.85;78.53
67748;HTU21D;54543;50.712;6.070;2022-11-11T02:00:13;8.87;78.07
67748;HTU21D;54543;50.712;6.070;2022-11-11T02:02:40;8.88;77.89
67748;HTU21D;54543;50.712;6.070;2022-11-11T02:05:10;8.90;77.77
67748;HTU21D;54543;50.712;6.070;2022-11-11T02:07:56;8.92;77.79
67748;HTU21D;54543;50.712;6.070;2022-11-11T02:10:24;8.94;77.55
67748;HTU21D;54543;50.712;6.070;2022-11-11T02:12:50;8.94;77.53
67748;HTU21D;54543;50.712;6.070;2022-11-11T02:15:35;8.93;77.56
67748;HTU21D;54543;50.712;6.070;2022-11-11T02:18:02;8.95;77.53
67748;HTU21D;54543;50.712;6.070;2022-11-11T02:20:29;8.95;77.54
67748;HTU21D;54543;50.712;6.070;2022-11-11T02:25:29;8.95;77.46
67748;HTU21D;54543;50.712;6.070;2022-11-11T02:27:58;8.94;77.60
67748;HTU21D;54543;50.712;6.070;2022-11-11T02:30:25;8.95;77.43
67748;HTU21D;54543;50.712;6.070;2022-11-11T02:32:52;8.94;77.44
67748;HTU21D;54543;50.712;6.070;2022-11-11T02:35:30;8.95;77.44
67748;HTU21D;54543;50.712;6.070;2022-11-11T02:37:56;8.92;77.51
67748;HTU21D;54543;50.712;6.070;2022-11-11T02:40:32;8.90;77.56
67748;HTU21D;54543;50.712;6.070;2022-11-11T02:42:59;8.87;77.77
67748;HTU21D;54543;50.712;6.070;2022-11-11T02:45:25;8.87;77.66
67748;HTU21D;54543;50.712;6.070;2022-11-11T02:47:50;8.88;77.64
67748;HTU21D;54543;50.712;6.070;2022-11-11T02:50:16;8.87;77.68
67748;HTU21D;54543;50.712;6.070;2022-11-11T02:52:42;8.86;77.71
67748;HTU21D;54543;50.712;6.070;2022-11-11T02:55:08;8.85;77.62
67748;HTU21D;54543;50.712;6.070;2022-11-11T02:57:34;8.83;77.60
67748;HTU21D;54543;50.712;6.070;2022-11-11T03:00:00;8.86;77.43
67748;HTU21D;54543;50.712;6.070;2022-11-11T03:02:27;8.86;77.44
67748;HTU21D;54543;50.712;6.070;2022-11-11T03:04:56;8.85;77.38
67748;HTU21D;54543;50.712;6.070;2022-11-11T03:07:23;8.86;77.31
67748;HTU21D;54543;50.712;6.070;2022-11-11T03:09:48;8.85;77.18
67748;HTU21D;54543;50.712;6.070;2022-11-11T03:12:14;8.85;77.18
67748;HTU21D;54543;50.712;6.070;2022-11-11T03:14:40;8.85;77.08
67748;HTU21D;54543;50.712;6.070;2022-11-11T03:17:06;8.85;77.02
67748;HTU21D;54543;50.712;6.070;2022-11-11T03:19:50;8.86;76.94
67748;HTU21D;54543;50.712;6.070;2022-11-11T03:22:16;8.85;76.94
67748;HTU21D;54543;50.712;6.070;2022-11-11T03:24:41;8.83;76.89
67748;HTU21D;54543;50.712;6.070;2022-11-11T03:27:25;8.81;76.84
67748;HTU21D;54543;50.712;6.070;2022-11-11T03:29:51;8.81;76.86
67748;HTU21D;54543;50.712;6.070;2022-11-11T03:32:16;8.78;76.92
67748;HTU21D;54543;50.712;6.070;2022-11-11T03:34:42;8.75;76.95
67748;HTU21D;54543;50.712;6.070;2022-11-11T03:37:09;8.75;76.98
67748;HTU21D;54543;50.712;6.070;2022-11-11T03:39:53;8.74;77.02
67748;HTU21D;54543;50.712;6.070;2022-11-11T03:42:19;8.73;77.04
67748;HTU21D;54543;50.712;6.070;2022-11-11T03:44:44;8.71;77.05
67748;HTU21D;54543;50.712;6.070;2022-11-11T03:47:10;8.71;77.06
67748;HTU21D;54543;50.712;6.070;2022-11-11T03:49:36;8.68;77.11
67748;HTU21D;54543;50.712;6.070;2022-11-11T03:52:01;8.66;77.18
67748;HTU21D;54543;50.712;6.070;2022-11-11T03:54:27;8.63;77.18
67748;HTU21D;54543;50.712;6.070;2022-11-11T03:56:52;8.62;77.18
67748;HTU21D;54543;50.712;6.070;2022-11-11T03:59:38;8.59;77.21
67748;HTU21D;54543;50.712;6.070;2022-11-11T04:02:03;8.57;77.26
67748;HTU21D;54543;50.712;6.070;2022-11-11T04:04:47;8.55;77.28
67748;HTU21D;54543;50.712;6.070;2022-11-11T04:07:31;8.53;77.31
67748;HTU21D;54543;50.712;6.070;2022-11-11T04:10:15;8.50;77.36
67748;HTU21D;54543;50.712;6.070;2022-11-11T04:12:47;8.47;77.48
67748;HTU21D;54543;50.712;6.070;2022-11-11T04:15:31;8.46;77.50
67748;HTU21D;54543;50.712;6.070;2022-11-11T04:18:15;8.42;77.60
67748;HTU21D;54543;50.712;6.070;2022-11-11T04:20:42;8.38;77.61
67748;HTU21D;54543;50.712;6.070;2022-11-11T04:23:26;8.39;77.40
67748;HTU21D;54543;50.712;6.070;2022-11-11T04:25:51;8.38;77.38
67748;HTU21D;54543;50.712;6.070;2022-11-11T04:28:18;8.37;77.27
67748;HTU21D;54543;50.712;6.070;2022-11-11T04:31:02;8.35;77.33
67748;HTU21D;54543;50.712;6.070;2022-11-11T04:33:28;8.32;77.38
67748;HTU21D;54543;50.712;6.070;2022-11-11T04:35:53;8.30;77.41
67748;HTU21D;54543;50.712;6.070;2022-11-11T04:38:19;8.27;77.58
67748;HTU21D;54543;50.712;6.070;2022-11-11T04:41:03;8.22;77.66
67748;HTU21D;54543;50.712;6.070;2022-11-11T04:43:29;8.20;77.68
67748;HTU21D;54543;50.712;6.070;2022-11-11T04:45:59;8.19;77.74
67748;HTU21D;54543;50.712;6.070;2022-11-11T04:48:24;8.14;77.84
67748;HTU21D;54543;50.712;6.070;2022-11-11T04:50:50;8.11;77.88
67748;HTU21D;54543;50.712;6.070;2022-11-11T04:53:16;8.09;77.97
67748;HTU21D;54543;50.712;6.070;2022-11-11T04:55:43;8.07;77.89
67748;HTU21D;54543;50.712;6.070;2022-11-11T04:58:33;8.02;78.02
67748;HTU21D;54543;50.712;6.070;2022-11-11T05:00:59;8.00;78.08
67748;HTU21D;54543;50.712;6.070;2022-11-11T05:03:25;7.98;78.18
67748;HTU21D;54543;50.712;6.070;2022-11-11T05:05:56;7.94;78.36
67748;HTU21D;54543;50.712;6.070;2022-11-11T05:08:43;7.91;78.49
67748;HTU21D;54543;50.712;6.070;2022-11-11T05:11:23;7.88;78.50
67748;HTU21D;54543;50.712;6.070;2022-11-11T05:13:49;7.85;78.55
67748;HTU21D;54543;50.712;6.070;2022-11-11T05:16:53;7.82;78.73
67748;HTU21D;54543;50.712;6.070;2022-11-11T05:19:38;7.78;78.66
67748;HTU21D;54543;50.712;6.070;2022-11-11T05:22:43;7.76;78.69
67748;HTU21D;54543;50.712;6.070;2022-11-11T05:25:10;7.74;78.72
67748;HTU21D;54543;50.712;6.070;2022-11-11T05:27:54;7.73;78.72
67748;HTU21D;54543;50.712;6.070;2022-11-11T05:30:21;7.73;78.78
67748;HTU21D;54543;50.712;6.070;2022-11-11T05:32:47;7.74;78.72
67748;HTU21D;54543;50.712;6.070;2022-11-11T05:35:13;7.74;78.71
67748;HTU21D;54543;50.712;6.070;2022-11-11T05:37:40;7.72;78.72
67748;HTU21D;54543;50.712;6.070;2022-11-11T05:40:06;7.71;78.72
67748;HTU21D;54543;50.712;6.070;2022-11-11T05:42:32;7.70;78.75
67748;HTU21D;54543;50.712;6.070;2022-11-11T05:44:58;7.68;78.85
67748;HTU21D;54543;50.712;6.070;2022-11-11T05:47:23;7.64;78.86
67748;HTU21D;54543;50.712;6.070;2022-11-11T05:49:49;7.63;78.88
67748;HTU21D;54543;50.712;6.070;2022-11-11T05:52:15;7.62;78.85
67748;HTU21D;54543;50.712;6.070;2022-11-11T05:54:41;7.57;78.93
67748;HTU21D;54543;50.712;6.070;2022-11-11T05:57:07;7.53;79.01
67748;HTU21D;54543;50.712;6.070;2022-11-11T05:59:33;7.49;79.14
67748;HTU21D;54543;50.712;6.070;2022-11-11T06:01:59;7.45;79.24
67748;HTU21D;54543;50.712;6.070;2022-11-11T06:04:24;7.44;79.21
67748;HTU21D;54543;50.712;6.070;2022-11-11T06:06:50;7.45;79.07
67748;HTU21D;54543;50.712;6.070;2022-11-11T06:09:16;7.46;79.00
67748;HTU21D;54543;50.712;6.070;2022-11-11T06:11:41;7.44;78.95
67748;HTU21D;54543;50.712;6.070;2022-11-11T06:14:07;7.46;78.79
67748;HTU21D;54543;50.712;6.070;2022-11-11T06:16:33;7.50;78.65
67748;HTU21D;54543;50.712;6.070;2022-11-11T06:18:58;7.52;78.67
67748;HTU21D;54543;50.712;6.070;2022-11-11T06:21:25;7.52;78.82
67748;HTU21D;54543;50.712;6.070;2022-11-11T06:23:50;7.50;78.92
67748;HTU21D;54543;50.712;6.070;2022-11-11T06:26:16;7.50;78.85
67748;HTU21D;54543;50.712;6.070;2022-11-11T06:31:17;7.57;78.65
67748;HTU21D;54543;50.712;6.070;2022-11-11T06:33:43;7.61;78.48
67748;HTU21D;54543;50.712;6.070;2022-11-11T06:36:11;7.63;78.37
67748;HTU21D;54543;50.712;6.070;2022-11-11T06:38:38;7.65;78.38
67748;HTU21D;54543;50.712;6.070;2022-11-11T06:41:04;7.67;78.34
67748;HTU21D;54543;50.712;6.070;2022-11-11T06:43:29;7.69;78.37
67748;HTU21D;54543;50.712;6.070;2022-11-11T06:45:55;7.69;78.42
67748;HTU21D;54543;50.712;6.070;2022-11-11T06:48:22;7.71;78.41
67748;HTU21D;54543;50.712;6.070;2022-11-11T06:50:48;7.73;78.37
67748;HTU21D;54543;50.712;6.070;2022-11-11T06:53:15;7.74;78.37
67748;HTU21D;54543;50.712;6.070;2022-11-11T06:55:41;7.76;78.34
67748;HTU21D;54543;50.712;6.070;2022-11-11T06:58:11;7.77;78.34
67748;HTU21D;54543;50.712;6.070;2022-11-11T07:00:38;7.79;78.27
67748;HTU21D;54543;50.712;6.070;2022-11-11T07:03:05;7.82;78.24
67748;HTU21D;54543;50.712;6.070;2022-11-11T07:05:34;7.85;78.21
67748;HTU21D;54543;50.712;6.070;2022-11-11T07:08:04;7.88;78.10
67748;HTU21D;54543;50.712;6.070;2022-11-11T07:10:31;7.92;78.05
67748;HTU21D;54543;50.712;6.070;2022-11-11T07:12:58;7.96;77.97
67748;HTU21D;54543;50.712;6.070;2022-11-11T07:15:24;7.99;77.91
67748;HTU21D;54543;50.712;6.070;2022-11-11T07:17:49;7.98;78.03
67748;HTU21D;54543;50.712;6.070;2022-11-11T07:20:15;7.97;78.24
67748;HTU21D;54543;50.712;6.070;2022-11-11T07:22:41;7.90;78.27
67748;HTU21D;54543;50.712;6.070;2022-11-11T07:25:07;7.88;78.50
67748;HTU21D;54543;50.712;6.070;2022-11-11T07:27:36;7.87;78.59
67748;HTU21D;54543;50.712;6.070;2022-11-11T07:30:02;7.88;78.59
67748;HTU21D;54543;50.712;6.070;2022-11-11T07:32:28;7.87;78.66
67748;HTU21D;54543;50.712;6.070;2022-11-11T07:34:54;7.88;78.72
67748;HTU21D;54543;50.712;6.070;2022-11-11T07:37:19;7.90;78.86
67748;HTU21D;54543;50.712;6.070;2022-11-11T07:39:45;7.93;78.88
67748;HTU21D;54543;50.712;6.070;2022-11-11T07:42:10;7.96;78.71
67748;HTU21D;54543;50.712;6.070;2022-11-11T07:44:36;8.01;78.47
67748;HTU21D;54543;50.712;6.070;2022-11-11T07:47:01;8.11;78.14
67748;HTU21D;54543;50.712;6.070;2022-11-11T07:49:27;8.19;77.81
67748;HTU21D;54543;50.712;6.070;2022-11-11T07:51:53;8.28;77.55
67748;HTU21D;54543;50.712;6.070;2022-11-11T07:54:18;8.34;77.41
67748;HTU21D;54543;50.712;6.070;2022-11-11T07:56:44;8.41;77.27
67748;HTU21D;54543;50.712;6.070;2022-11-11T07:59:09;8.46;77.31
67748;HTU21D;54543;50.712;6.070;2022-11-11T08:01:35;8.50;77.42
67748;HTU21D;54543;50.712;6.070;2022-11-11T08:04:00;8.52;77.18
67748;HTU21D;54543;50.712;6.070;2022-11-11T08:06:25;8.56;77.27
67748;HTU21D;54543;50.712;6.070;2022-11-11T08:08:52;8.59;77.37
67748;HTU21D;54543;50.712;6.070;2022-11-11T08:11:17;8.60;77.54
67748;HTU21D;54543;50.712;6.070;2022-11-11T08:14:03;8.60;77.59
67748;HTU21D;54543;50.712;6.070;2022-11-11T08:16:28;8.65;77.67
67748;HTU21D;54543;50.712;6.070;2022-11-11T08:18:54;8.74;77.65
67748;HTU21D;54543;50.712;6.070;2022-11-11T08:21:23;8.83;77.52
67748;HTU21D;54543;50.712;6.070;2022-11-11T08:23:49;8.93;77.36
67748;HTU21D;54543;50.712;6.070;2022-11-11T08:26:16;9.00;77.21
67748;HTU21D;54543;50.712;6.070;2022-11-11T08:28:42;9.07;77.22
67748;HTU21D;54543;50.712;6.070;2022-11-11T08:31:08;9.16;77.13
67748;HTU21D;54543;50.712;6.070;2022-11-11T08:33:35;9.25;76.73
67748;HTU21D;54543;50.712;6.070;2022-11-11T08:36:02;9.37;76.60
67748;HTU21D;54543;50.712;6.070;2022-11-11T08:38:31;9.50;76.41
67748;HTU21D;54543;50.712;6.070;2022-11-11T08:41:05;9.65;75.86
67748;HTU21D;54543;50.712;6.070;2022-11-11T08:43:31;9.80;75.50
67748;HTU21D;54543;50.712;6.070;2022-11-11T08:46:01;9.94;74.95
67748;HTU21D;54543;50.712;6.070;2022-11-11T08:48:30;10.07;74.60
67748;HTU21D;54543;50.712;6.070;2022-11-11T08:50:56;10.18;74.37
67748;HTU21D;54543;50.712;6.070;2022-11-11T08:53:23;10.28;74.22
67748;HTU21D;54543;50.712;6.070;2022-11-11T08:55:48;10.37;74.15
67748;HTU21D;54543;50.712;6.070;2022-11-11T08:58:14;10.46;74.25
67748;HTU21D;54543;50.712;6.070;2022-11-11T09:00:40;10.56;73.90
67748;HTU21D;54543;50.712;6.070;2022-11-11T09:03:08;10.66;73.86
67748;HTU21D;54543;50.712;6.070;2022-11-11T09:05:36;10.72;73.39
67748;HTU21D;54543;50.712;6.070;2022-11-11T09:08:04;10.75;73.48
67748;HTU21D;54543;50.712;6.070;2022-11-11T09:10:33;10.79;73.58
67748;HTU21D;54543;50.712;6.070;2022-11-11T09:12:59;10.81;73.73
67748;HTU21D;54543;50.712;6.070;2022-11-11T09:15:27;10.85;73.59
67748;HTU21D;54543;50.712;6.070;2022-11-11T09:17:53;10.88;73.63
67748;HTU21D;54543;50.712;6.070;2022-11-11T09:20:19;10.92;73.56
67748;HTU21D;54543;50.712;6.070;2022-11-11T09:22:45;10.95;73.67
67748;HTU21D;54543;50.712;6.070;2022-11-11T09:25:11;11.00;73.82
67748;HTU21D;54543;50.712;6.070;2022-11-11T09:27:37;11.04;73.67
67748;HTU21D;54543;50.712;6.070;2022-11-11T09:30:04;11.08;73.54
67748;HTU21D;54543;50.712;6.070;2022-11-11T09:32:30;11.13;73.48
67748;HTU21D;54543;50.712;6.070;2022-11-11T09:34:56;11.18;73.47
67748;HTU21D;54543;50.712;6.070;2022-11-11T09:37:22;11.23;73.32
67748;HTU21D;54543;50.712;6.070;2022-11-11T09:39:48;11.25;73.24
67748;HTU21D;54543;50.712;6.070;2022-11-11T09:42:39;11.30;73.14
67748;HTU21D;54543;50.712;6.070;2022-11-11T09:45:33;11.33;73.15
67748;HTU21D;54543;50.712;6.070;2022-11-11T09:50:53;11.44;73.09
67748;HTU21D;54543;50.712;6.070;2022-11-11T09:53:32;11.49;72.74
67748;HTU21D;54543;50.712;6.070;2022-11-11T09:56:07;11.55;72.93
67748;HTU21D;54543;50.712;6.070;2022-11-11T09:58:38;11.61;72.89
67748;HTU21D;54543;50.712;6.070;2022-11-11T10:01:29;11.67;72.54
67748;HTU21D;54543;50.712;6.070;2022-11-11T10:06:39;11.81;72.69
67748;HTU21D;54543;50.712;6.070;2022-11-11T10:12:00;11.98;71.84
67748;HTU21D;54543;50.712;6.070;2022-11-11T10:14:33;12.08;71.66
67748;HTU21D;54543;50.712;6.070;2022-11-11T10:22:19;12.34;71.24
67748;HTU21D;54543;50.712;6.070;2022-11-11T10:24:51;12.42;69.64
67748;HTU21D;54543;50.712;6.070;2022-11-11T10:27:20;12.50;70.74
67748;HTU21D;54543;50.712;6.070;2022-11-11T10:29:46;12.57;70.72
67748;HTU21D;54543;50.712;6.070;2022-11-11T10:34:42;12.70;70.45
67748;HTU21D;54543;50.712;6.070;2022-11-11T10:37:18;12.77;70.07
67748;HTU21D;54543;50.712;6.070;2022-11-11T10:40:20;12.85;69.04
67748;HTU21D;54543;50.712;6.070;2022-11-11T10:42:46;12.90;69.92
67748;HTU21D;54543;50.712;6.070;2022-11-11T10:45:25;12.95;68.57
67748;HTU21D;54543;50.712;6.070;2022-11-11T10:47:59;13.05;69.40
67748;HTU21D;54543;50.712;6.070;2022-11-11T10:50:39;13.16;68.33
67748;HTU21D;54543;50.712;6.070;2022-11-11T10:58:53;13.43;67.33
67748;HTU21D;54543;50.712;6.070;2022-11-11T11:01:27;13.48;67.15
67748;HTU21D;54543;50.712;6.070;2022-11-11T11:03:58;13.53;67.68
67748;HTU21D;54543;50.712;6.070;2022-11-11T11:06:29;13.60;68.09
67748;HTU21D;54543;50.712;6.070;2022-11-11T11:12:06;13.75;66.39
67748;HTU21D;54543;50.712;6.070;2022-11-11T11:14:38;13.80;67.84
67748;HTU21D;54543;50.712;6.070;2022-11-11T11:17:16;13.86;66.34
67748;HTU21D;54543;50.712;6.070;2022-11-11T11:19:42;13.94;67.26
67748;HTU21D;54543;50.712;6.070;2022-11-11T11:22:08;13.99;67.41
67748;HTU21D;54543;50.712;6.070;2022-11-11T11:24:35;14.05;67.43
67748;HTU21D;54543;50.712;6.070;2022-11-11T11:27:05;14.12;67.22
67748;HTU21D;54543;50.712;6.070;2022-11-11T11:29:39;14.21;65.01
67748;HTU21D;54543;50.712;6.070;2022-11-11T11:32:30;14.30;63.85
67748;HTU21D;54543;50.712;6.070;2022-11-11T11:34:56;14.40;66.79
67748;HTU21D;54543;50.712;6.070;2022-11-11T11:37:25;14.50;65.40
67748;HTU21D;54543;50.712;6.070;2022-11-11T11:40:05;14.56;64.23
67748;HTU21D;54543;50.712;6.070;2022-11-11T11:42:36;14.63;65.08
67748;HTU21D;54543;50.712;6.070;2022-11-11T11:50:45;14.82;61.48
67748;HTU21D;54543;50.712;6.070;2022-11-11T11:56:14;15.02;63.41
67748;HTU21D;54543;50.712;6.070;2022-11-11T11:58:55;15.17;64.37
67748;HTU21D;54543;50.712;6.070;2022-11-11T12:01:34;15.33;63.63
67748;HTU21D;54543;50.712;6.070;2022-11-11T12:07:09;15.60;63.57
67748;HTU21D;54543;50.712;6.070;2022-11-11T12:16:13;15.96;60.48
67748;HTU21D;54543;50.712;6.070;2022-11-11T12:21:50;15.97;59.99
67748;HTU21D;54543;50.712;6.070;2022-11-11T12:24:30;15.98;61.08
67748;HTU21D;54543;50.712;6.070;2022-11-11T12:27:11;16.02;61.15
67748;HTU21D;54543;50.712;6.070;2022-11-11T12:32:43;16.07;57.41
67748;HTU21D;54543;50.712;6.070;2022-11-11T12:43:14;16.28;61.22
67748;HTU21D;54543;50.712;6.070;2022-11-11T12:48:55;16.46;59.56
67748;HTU21D;54543;50.712;6.070;2022-11-11T12:56:44;16.60;59.03
67748;HTU21D;54543;50.712;6.070;2022-11-11T13:04:48;16.60;58.90
67748;HTU21D;54543;50.712;6.070;2022-11-11T13:15:40;16.63;60.60
67748;HTU21D;54543;50.712;6.070;2022-11-11T13:18:18;16.67;57.57
67748;HTU21D;54543;50.712;6.070;2022-11-11T13:20:56;16.70;57.56
67748;HTU21D;54543;50.712;6.070;2022-11-11T13:23:22;16.65;59.13
67748;HTU21D;54543;50.712;6.070;2022-11-11T13:25:51;16.61;59.58
67748;HTU21D;54543;50.712;6.070;2022-11-11T13:28:25;16.61;58.91
67748;HTU21D;54543;50.712;6.070;2022-11-11T13:33:46;16.66;58.42
67748;HTU21D;54543;50.712;6.070;2022-11-11T13:36:17;16.63;59.31
67748;HTU21D;54543;50.712;6.070;2022-11-11T13:38:59;16.58;57.02
67748;HTU21D;54543;50.712;6.070;2022-11-11T13:43:54;16.50;59.68
67748;HTU21D;54543;50.712;6.070;2022-11-11T13:46:31;16.50;58.60
67748;HTU21D;54543;50.712;6.070;2022-11-11T13:48:59;16.51;59.54
67748;HTU21D;54543;50.712;6.070;2022-11-11T13:52:17;16.54;58.56
67748;HTU21D;54543;50.712;6.070;2022-11-11T13:54:33;16.55;57.66
67748;HTU21D;54543;50.712;6.070;2022-11-11T13:57:07;16.55;55.17
67748;HTU21D;54543;50.712;6.070;2022-11-11T13:59:37;16.57;59.12
67748;HTU21D;54543;50.712;6.070;2022-11-11T14:12:51;16.37;59.27
67748;HTU21D;54543;50.712;6.070;2022-11-11T14:18:38;16.32;55.29
67748;HTU21D;54543;50.712;6.070;2022-11-11T14:21:04;16.32;58.89
67748;HTU21D;54543;50.712;6.070;2022-11-11T14:39:01;16.04;58.70
67748;HTU21D;54543;50.712;6.070;2022-11-11T14:49:50;15.74;57.74
67748;HTU21D;54543;50.712;6.070;2022-11-11T14:57:33;15.49;60.12
67748;HTU21D;54543;50.712;6.070;2022-11-11T15:00:02;15.43;60.84
67748;HTU21D;54543;50.712;6.070;2022-11-11T15:02:34;15.36;60.57
67748;HTU21D;54543;50.712;6.070;2022-11-11T15:05:02;15.26;60.96
67748;HTU21D;54543;50.712;6.070;2022-11-11T15:07:34;15.16;60.34
67748;HTU21D;54543;50.712;6.070;2022-11-11T15:10:11;15.03;61.04
67748;HTU21D;54543;50.712;6.070;2022-11-11T15:15:59;14.68;61.77
67748;HTU21D;54543;50.712;6.070;2022-11-11T15:21:52;14.45;61.15
67748;HTU21D;54543;50.712;6.070;2022-11-11T15:27:25;14.29;61.60
67748;HTU21D;54543;50.712;6.070;2022-11-11T15:38:15;13.58;64.14
67748;HTU21D;54543;50.712;6.070;2022-11-11T15:40:43;13.46;64.48
67748;HTU21D;54543;50.712;6.070;2022-11-11T15:43:29;13.31;65.58
67748;HTU21D;54543;50.712;6.070;2022-11-11T15:45:58;13.10;65.35
67748;HTU21D;54543;50.712;6.070;2022-11-11T15:48:39;12.90;66.81
67748;HTU21D;54543;50.712;6.070;2022-11-11T15:51:17;12.74;66.36
67748;HTU21D;54543;50.712;6.070;2022-11-11T15:53:42;12.67;66.36
67748;HTU21D;54543;50.712;6.070;2022-11-11T15:56:08;12.65;66.33
67748;HTU21D;54543;50.712;6.070;2022-11-11T15:58:34;12.64;66.40
67748;HTU21D;54543;50.712;6.070;2022-11-11T16:01:03;12.61;66.38
67748;HTU21D;54543;50.712;6.070;2022-11-11T16:03:39;12.56;66.77
67748;HTU21D;54543;50.712;6.070;2022-11-11T16:06:10;12.45;66.69
67748;HTU21D;54543;50.712;6.070;2022-11-11T16:08:40;12.40;66.82
67748;HTU21D;54543;50.712;6.070;2022-11-11T16:11:08;12.37;66.71
67748;HTU21D;54543;50.712;6.070;2022-11-11T16:13:45;12.37;66.63
67748;HTU21D;54543;50.712;6.070;2022-11-11T16:16:22;12.34;66.75
67748;HTU21D;54543;50.712;6.070;2022-11-11T16:18:59;12.25;66.94
67748;HTU21D;54543;50.712;6.070;2022-11-11T16:21:30;12.04;67.14
67748;HTU21D;54543;50.712;6.070;2022-11-11T16:23:58;11.88;67.62
67748;HTU21D;54543;50.712;6.070;2022-11-11T16:26:25;11.78;67.79
67748;HTU21D;54543;50.712;6.070;2022-11-11T16:28:53;11.77;67.85
67748;HTU21D;54543;50.712;6.070;2022-11-11T16:33:58;11.82;67.49
67748;HTU21D;54543;50.712;6.070;2022-11-11T16:36:24;11.86;67.27
67748;HTU21D;54543;50.712;6.070;2022-11-11T16:38:49;11.86;67.36
67748;HTU21D;54543;50.712;6.070;2022-11-11T16:41:23;11.77;67.84
67748;HTU21D;54543;50.712;6.070;2022-11-11T16:43:49;11.61;67.69
67748;HTU21D;54543;50.712;6.070;2022-11-11T16:46:37;11.41;69.36
67748;HTU21D;54543;50.712;6.070;2022-11-11T16:51:54;10.98;69.00
67748;HTU21D;54543;50.712;6.070;2022-11-11T16:54:31;10.83;70.07
67748;HTU21D;54543;50.712;6.070;2022-11-11T16:56:59;10.74;69.97
67748;HTU21D;54543;50.712;6.070;2022-11-11T16:59:35;10.68;70.34
67748;HTU21D;54543;50.712;6.070;2022-11-11T17:02:01;10.60;70.23
67748;HTU21D;54543;50.712;6.070;2022-11-11T17:04:48;10.48;73.04
67748;HTU21D;54543;50.712;6.070;2022-11-11T17:07:41;10.34;72.59
67748;HTU21D;54543;50.712;6.070;2022-11-11T17:12:36;10.16;72.54
67748;HTU21D;54543;50.712;6.070;2022-11-11T17:15:06;10.11;73.48
67748;HTU21D;54543;50.712;6.070;2022-11-11T17:17:36;10.08;71.77
67748;HTU21D;54543;50.712;6.070;2022-11-11T17:20:07;10.03;72.03
67748;HTU21D;54543;50.712;6.070;2022-11-11T17:22:33;9.98;72.07
67748;HTU21D;54543;50.712;6.070;2022-11-11T17:24:59;9.92;71.92
67748;HTU21D;54543;50.712;6.070;2022-11-11T17:27:28;9.83;73.54
67748;HTU21D;54543;50.712;6.070;2022-11-11T17:29:53;9.75;72.85
67748;HTU21D;54543;50.712;6.070;2022-11-11T17:32:19;9.67;72.79
67748;HTU21D;54543;50.712;6.070;2022-11-11T17:34:44;9.62;73.17
67748;HTU21D;54543;50.712;6.070;2022-11-11T17:37:10;9.59;72.90
67748;HTU21D;54543;50.712;6.070;2022-11-11T17:39:35;9.59;72.52
67748;HTU21D;54543;50.712;6.070;2022-11-11T17:42:02;9.64;72.32
67748;HTU21D;54543;50.712;6.070;2022-11-11T17:44:28;9.69;71.91
67748;HTU21D;54543;50.712;6.070;2022-11-11T17:46:53;9.75;71.63
67748;HTU21D;54543;50.712;6.070;2022-11-11T17:49:19;9.81;71.00
67748;HTU21D;54543;50.712;6.070;2022-11-11T17:51:44;9.80;71.00
67748;HTU21D;54543;50.712;6.070;2022-11-11T17:54:10;9.65;71.45
67748;HTU21D;54543;50.712;6.070;2022-11-11T17:56:35;9.49;71.75
67748;HTU21D;54543;50.712;6.070;2022-11-11T17:59:04;9.41;71.93
67748;HTU21D;54543;50.712;6.070;2022-11-11T18:01:32;9.41;72.08
67748;HTU21D;54543;50.712;6.070;2022-11-11T18:03:57;9.40;71.94
67748;HTU21D;54543;50.712;6.070;2022-11-11T18:06:23;9.42;71.69
67748;HTU21D;54543;50.712;6.070;2022-11-11T18:08:51;9.48;71.44
67748;HTU21D;54543;50.712;6.070;2022-11-11T18:11:16;9.62;70.45
67748;HTU21D;54543;50.712;6.070;2022-11-11T18:13:41;9.78;69.99
67748;HTU21D;54543;50.712;6.070;2022-11-11T18:16:13;9.89;69.64
67748;HTU21D;54543;50.712;6.070;2022-11-11T18:18:39;9.85;69.72
67748;HTU21D;54543;50.712;6.070;2022-11-11T18:21:06;9.76;69.65
67748;HTU21D;54543;50.712;6.070;2022-11-11T18:23:33;9.71;69.56
67748;HTU21D;54543;50.712;6.070;2022-11-11T18:25:59;9.66;69.49
67748;HTU21D;54543;50.712;6.070;2022-11-11T18:28:33;9.53;69.56
67748;HTU21D;54543;50.712;6.070;2022-11-11T18:31:07;9.51;69.38
67748;HTU21D;54543;50.712;6.070;2022-11-11T18:33:34;9.61;69.67
67748;HTU21D;54543;50.712;6.070;2022-11-11T18:36:07;9.75;69.52
67748;HTU21D;54543;50.712;6.070;2022-11-11T18:38:34;9.81;69.45
67748;HTU21D;54543;50.712;6.070;2022-11-11T18:43:38;9.74;69.34